createdAt,value
2017-03-28T00:00:50.412Z,23.13
2017-03-28T00:01:49.813Z,23.19
2017-03-28T00:02:50.467Z,23.19
2017-03-28T00:03:50.189Z,23.22
2017-03-28T00:04:49.898Z,23.16
2017-03-28T00:05:50.556Z,23.16
2017-03-28T00:06:50.264Z,23.19
2017-03-28T00:07:50.296Z,23.17
2017-03-28T00:08:50.633Z,23.09
2017-03-28T00:09:50.662Z,23.13
2017-03-28T00:10:50.694Z,23.1
2017-03-28T00:11:50.723Z,23.1
2017-03-28T00:12:50.129Z,23.07
2017-03-28T00:13:50.807Z,23.04
2017-03-28T00:14:50.806Z,23.09
2017-03-28T00:15:50.844Z,23.09
2017-03-28T00:16:50.548Z,23.07
2017-03-28T00:17:50.892Z,23.05
2017-03-28T00:18:50.925Z,23.01
2017-03-28T00:19:50.943Z,23.12
2017-03-28T00:20:50.662Z,23.04
2017-03-28T00:21:50.691Z,23.05
2017-03-28T00:22:51.030Z,23.02
2017-03-28T00:23:51.055Z,23.04
2017-03-28T00:24:51.077Z,23.09
2017-03-28T00:25:51.120Z,23.05
2017-03-28T00:26:51.140Z,23.05
2017-03-28T00:27:51.180Z,23.07
2017-03-28T00:28:50.881Z,23.02
2017-03-28T00:29:50.907Z,23.05
2017-03-28T00:30:51.247Z,23.02
2017-03-28T00:31:50.967Z,23.09
2017-03-28T00:32:51.313Z,23.02
2017-03-28T00:33:51.021Z,23.01
2017-03-28T00:34:51.049Z,23.02
2017-03-28T00:35:51.085Z,22.95
2017-03-28T00:36:51.427Z,23.04
2017-03-28T00:37:51.453Z,22.98
2017-03-28T00:38:51.161Z,23.04
2017-03-28T00:39:51.191Z,22.98
2017-03-28T00:40:50.919Z,23
2017-03-28T00:41:51.244Z,22.98
2017-03-28T00:42:51.593Z,22.98
2017-03-28T00:43:51.622Z,22.92
2017-03-28T00:44:51.650Z,22.95
2017-03-28T00:45:51.683Z,22.95
2017-03-28T00:46:51.694Z,22.9
2017-03-28T00:47:51.421Z,22.88
2017-03-28T00:48:51.766Z,22.86
2017-03-28T00:49:51.786Z,22.88
2017-03-28T00:50:51.493Z,22.86
2017-03-28T00:51:51.526Z,22.88
2017-03-28T00:52:51.560Z,22.86
2017-03-28T00:53:51.575Z,22.9
2017-03-28T00:54:51.925Z,22.9
2017-03-28T00:55:51.642Z,22.92
2017-03-28T00:56:51.979Z,22.82
2017-03-28T00:57:51.700Z,22.91
2017-03-28T00:58:51.720Z,22.91
2017-03-28T00:59:52.062Z,22.88
2017-03-28T01:00:52.089Z,22.9
2017-03-28T01:01:52.118Z,22.85
2017-03-28T01:02:51.836Z,22.86
2017-03-28T01:03:51.852Z,22.79
2017-03-28T01:04:52.206Z,22.77
2017-03-28T01:05:51.917Z,22.83
2017-03-28T01:06:52.258Z,22.91
2017-03-28T01:07:52.284Z,22.82
2017-03-28T01:08:52.317Z,22.85
2017-03-28T01:09:52.031Z,22.8
2017-03-28T01:10:52.057Z,22.8
2017-03-28T01:11:52.395Z,22.83
2017-03-28T01:12:52.116Z,22.77
2017-03-28T01:13:52.402Z,22.79
2017-03-28T01:14:52.480Z,22.79
2017-03-28T01:15:52.513Z,22.79
2017-03-28T01:16:52.233Z,22.8
2017-03-28T01:17:52.252Z,22.76
2017-03-28T01:18:52.848Z,22.79
2017-03-28T01:19:52.304Z,22.76
2017-03-28T01:20:52.336Z,22.76
2017-03-28T01:21:52.362Z,22.75
2017-03-28T01:22:52.396Z,22.75
2017-03-28T01:23:52.354Z,22.76
2017-03-28T01:24:52.765Z,22.75
2017-03-28T01:25:52.786Z,22.76
2017-03-28T01:26:52.190Z,22.79
2017-03-28T01:27:52.844Z,22.72
2017-03-28T01:28:53.131Z,22.72
2017-03-28T01:29:52.900Z,22.67
2017-03-28T01:30:52.929Z,22.72
2017-03-28T01:31:52.634Z,22.65
2017-03-28T01:32:52.667Z,22.67
2017-03-28T01:33:53.259Z,22.7
2017-03-28T01:34:53.038Z,22.79
2017-03-28T01:35:53.066Z,22.7
2017-03-28T01:36:53.090Z,22.72
2017-03-28T01:37:53.119Z,22.72
2017-03-28T01:38:53.096Z,22.72
2017-03-28T01:39:53.181Z,22.7
2017-03-28T01:40:53.205Z,22.68
2017-03-28T01:41:53.230Z,22.7
2017-03-28T01:42:53.253Z,22.67
2017-03-28T01:43:53.538Z,22.64
2017-03-28T01:44:53.001Z,22.67
2017-03-28T01:45:53.028Z,22.73
2017-03-28T01:46:53.360Z,22.68
2017-03-28T01:47:53.087Z,22.77
2017-03-28T01:48:53.364Z,22.67
2017-03-28T01:49:53.461Z,22.73
2017-03-28T01:50:53.165Z,22.62
2017-03-28T01:51:53.196Z,22.72
2017-03-28T01:52:53.538Z,22.7
2017-03-28T01:53:53.819Z,22.67
2017-03-28T01:54:53.593Z,22.65
2017-03-28T01:55:53.305Z,22.64
2017-03-28T01:56:53.652Z,22.64
2017-03-28T01:57:53.358Z,22.67
2017-03-28T01:58:53.951Z,22.61
2017-03-28T01:59:53.728Z,22.62
2017-03-28T02:00:53.756Z,22.65
2017-03-28T02:01:53.785Z,22.61
2017-03-28T02:02:53.498Z,22.58
2017-03-28T02:03:54.099Z,22.61
2017-03-28T02:04:53.864Z,22.55
2017-03-28T02:05:53.580Z,22.54
2017-03-28T02:06:53.923Z,22.62
2017-03-28T02:07:53.634Z,22.62
2017-03-28T02:08:53.910Z,22.57
2017-03-28T02:09:53.692Z,22.6
2017-03-28T02:10:53.723Z,22.65
2017-03-28T02:11:54.062Z,22.6
2017-03-28T02:12:53.806Z,22.58
2017-03-28T02:13:54.066Z,22.58
2017-03-28T02:14:54.147Z,22.54
2017-03-28T02:15:54.168Z,22.64
2017-03-28T02:16:54.198Z,22.62
2017-03-28T02:17:53.914Z,22.6
2017-03-28T02:18:54.514Z,22.61
2017-03-28T02:19:53.971Z,22.62
2017-03-28T02:20:54.310Z,22.57
2017-03-28T02:21:54.020Z,22.64
2017-03-28T02:22:54.365Z,22.6
2017-03-28T02:23:54.653Z,22.47
2017-03-28T02:24:54.103Z,22.61
2017-03-28T02:25:54.132Z,22.62
2017-03-28T02:26:54.156Z,22.57
2017-03-28T02:27:54.512Z,22.51
2017-03-28T02:28:54.794Z,22.47
2017-03-28T02:29:54.556Z,22.57
2017-03-28T02:30:54.582Z,22.58
2017-03-28T02:31:54.296Z,22.54
2017-03-28T02:32:54.326Z,22.43
2017-03-28T02:33:54.917Z,22.54
2017-03-28T02:34:54.378Z,22.46
2017-03-28T02:35:54.403Z,22.49
2017-03-28T02:36:54.435Z,22.51
2017-03-28T02:37:54.777Z,22.52
2017-03-28T02:38:54.740Z,22.51
2017-03-28T02:39:54.839Z,22.43
2017-03-28T02:40:54.855Z,22.42
2017-03-28T02:41:54.883Z,22.46
2017-03-28T02:42:54.918Z,22.45
2017-03-28T02:43:54.874Z,22.39
2017-03-28T02:44:54.970Z,22.42
2017-03-28T02:45:54.990Z,22.4
2017-03-28T02:46:55.024Z,22.4
2017-03-28T02:47:54.737Z,22.43
2017-03-28T02:48:54.709Z,22.37
2017-03-28T02:49:54.799Z,22.47
2017-03-28T02:50:54.503Z,22.37
2017-03-28T02:51:55.155Z,22.36
2017-03-28T02:52:54.873Z,22.4
2017-03-28T02:53:55.465Z,22.4
2017-03-28T02:54:55.245Z,22.39
2017-03-28T02:55:55.268Z,22.36
2017-03-28T02:56:55.303Z,22.4
2017-03-28T02:57:55.006Z,22.36
2017-03-28T02:58:55.042Z,22.42
2017-03-28T02:59:55.382Z,22.37
2017-03-28T03:00:55.411Z,22.42
2017-03-28T03:01:55.123Z,22.36
2017-03-28T03:02:55.152Z,22.36
2017-03-28T03:03:55.491Z,22.42
2017-03-28T03:04:55.519Z,22.42
2017-03-28T03:05:55.545Z,22.4
2017-03-28T03:06:55.263Z,22.42
2017-03-28T03:07:55.600Z,22.36
2017-03-28T03:08:55.637Z,22.36
2017-03-28T03:09:55.654Z,22.37
2017-03-28T03:10:55.431Z,22.3
2017-03-28T03:11:55.082Z,22.25
2017-03-28T03:12:55.428Z,22.31
2017-03-28T03:13:55.797Z,22.31
2017-03-28T03:14:55.798Z,22.3
2017-03-28T03:15:55.513Z,22.24
2017-03-28T03:16:55.534Z,22.31
2017-03-28T03:17:55.571Z,22.28
2017-03-28T03:18:55.277Z,22.27
2017-03-28T03:19:55.941Z,22.27
2017-03-28T03:20:55.962Z,22.27
2017-03-28T03:21:55.985Z,22.27
2017-03-28T03:22:56.013Z,22.28
2017-03-28T03:23:56.029Z,22.21
2017-03-28T03:24:56.065Z,22.28
2017-03-28T03:25:56.089Z,22.31
2017-03-28T03:26:55.817Z,22.27
2017-03-28T03:27:56.156Z,22.3
2017-03-28T03:28:56.172Z,22.24
2017-03-28T03:29:56.205Z,22.3
2017-03-28T03:30:55.918Z,22.35
2017-03-28T03:31:56.262Z,22.27
2017-03-28T03:32:55.972Z,22.21
2017-03-28T03:33:55.999Z,22.21
2017-03-28T03:34:56.036Z,22.27
2017-03-28T03:35:55.737Z,22.24
2017-03-28T03:36:56.395Z,22.24
2017-03-28T03:37:56.427Z,22.2
2017-03-28T03:38:56.136Z,22.18
2017-03-28T03:39:56.476Z,22.24
2017-03-28T03:40:56.505Z,22.21
2017-03-28T03:41:56.254Z,22.18
2017-03-28T03:42:56.555Z,22.17
2017-03-28T03:43:56.272Z,22.14
2017-03-28T03:44:56.608Z,22.18
2017-03-28T03:45:56.640Z,22.17
2017-03-28T03:46:56.349Z,22.1
2017-03-28T03:47:56.383Z,22.12
2017-03-28T03:48:56.727Z,22.15
2017-03-28T03:49:56.440Z,22.14
2017-03-28T03:50:56.472Z,22.17
2017-03-28T03:51:56.805Z,22.12
2017-03-28T03:52:56.826Z,22.09
2017-03-28T03:53:56.854Z,22.12
2017-03-28T03:54:56.904Z,22.1
2017-03-28T03:55:56.600Z,22.15
2017-03-28T03:56:56.629Z,22.17
2017-03-28T03:57:56.964Z,22.21
2017-03-28T03:58:56.995Z,22.07
2017-03-28T03:59:57.024Z,22.1
2017-03-28T04:00:57.052Z,22.06
2017-03-28T04:01:57.077Z,22.1
2017-03-28T04:02:57.106Z,22.15
2017-03-28T04:03:56.818Z,22.17
2017-03-28T04:04:57.163Z,22.06
2017-03-28T04:05:57.187Z,22.07
2017-03-28T04:06:57.221Z,22.07
2017-03-28T04:07:56.621Z,22.07
2017-03-28T04:08:57.266Z,22.09
2017-03-28T04:09:57.299Z,22.05
2017-03-28T04:10:57.003Z,22.03
2017-03-28T04:11:57.351Z,22.05
2017-03-28T04:12:57.070Z,22.05
2017-03-28T04:13:57.099Z,22.1
2017-03-28T04:14:56.815Z,22.02
2017-03-28T04:15:57.460Z,22.02
2017-03-28T04:16:57.176Z,22.06
2017-03-28T04:17:57.513Z,22.02
2017-03-28T04:18:57.546Z,22.06
2017-03-28T04:19:57.562Z,22.03
2017-03-28T04:20:57.283Z,22.07
2017-03-28T04:21:57.627Z,22.06
2017-03-28T04:22:57.648Z,22.03
2017-03-28T04:23:57.673Z,22.05
2017-03-28T04:24:57.703Z,22.07
2017-03-28T04:25:57.741Z,22.09
2017-03-28T04:26:57.763Z,21.98
2017-03-28T04:27:57.480Z,22.03
2017-03-28T04:28:57.829Z,22.05
2017-03-28T04:29:57.830Z,22.03
2017-03-28T04:30:57.241Z,22.06
2017-03-28T04:31:57.587Z,22.06
2017-03-28T04:32:57.921Z,22.05
2017-03-28T04:33:57.950Z,22.1
2017-03-28T04:34:57.973Z,22.1
2017-03-28T04:35:57.690Z,22.09
2017-03-28T04:36:58.030Z,22.06
2017-03-28T04:37:58.072Z,22.06
2017-03-28T04:38:58.088Z,22.09
2017-03-28T04:39:58.126Z,22.15
2017-03-28T04:40:58.134Z,22.15
2017-03-28T04:41:58.176Z,22.15
2017-03-28T04:42:58.195Z,22.14
2017-03-28T04:43:58.228Z,22.15
2017-03-28T04:44:57.622Z,22.14
2017-03-28T04:45:57.645Z,22.27
2017-03-28T04:46:58.305Z,22.24
2017-03-28T04:47:58.336Z,22.25
2017-03-28T04:48:57.750Z,22.21
2017-03-28T04:49:58.388Z,22.21
2017-03-28T04:50:58.405Z,22.35
2017-03-28T04:51:58.119Z,22.33
2017-03-28T04:52:58.467Z,22.21
2017-03-28T04:53:58.491Z,22.27
2017-03-28T04:54:58.209Z,22.25
2017-03-28T04:55:58.545Z,22.31
2017-03-28T04:56:58.577Z,22.36
2017-03-28T04:57:58.611Z,22.36
2017-03-28T04:58:58.324Z,22.35
2017-03-28T04:59:58.916Z,22.4
2017-03-28T05:00:58.373Z,22.37
2017-03-28T05:01:58.709Z,22.42
2017-03-28T05:02:58.742Z,22.37
2017-03-28T05:03:58.763Z,22.4
2017-03-28T05:04:59.049Z,22.43
2017-03-28T05:05:58.820Z,22.43
2017-03-28T05:06:58.535Z,22.42
2017-03-28T05:07:58.875Z,22.49
2017-03-28T05:08:58.899Z,22.4
2017-03-28T05:09:58.872Z,22.52
2017-03-28T05:10:58.634Z,22.54
2017-03-28T05:11:58.983Z,22.52
2017-03-28T05:12:59.014Z,22.54
2017-03-28T05:13:58.782Z,22.57
2017-03-28T05:14:59.004Z,22.51
2017-03-28T05:15:59.105Z,22.49
2017-03-28T05:16:58.806Z,22.49
2017-03-28T05:17:59.149Z,22.47
2017-03-28T05:18:58.866Z,22.64
2017-03-28T05:19:59.139Z,22.61
2017-03-28T05:20:58.911Z,22.52
2017-03-28T05:21:59.257Z,22.54
2017-03-28T05:22:58.972Z,22.52
2017-03-28T05:23:59.310Z,22.6
2017-03-28T05:24:59.275Z,22.61
2017-03-28T05:25:59.359Z,22.58
2017-03-28T05:26:58.769Z,22.64
2017-03-28T05:27:59.418Z,22.6
2017-03-28T05:28:59.446Z,22.57
2017-03-28T05:29:59.725Z,22.62
2017-03-28T05:30:59.495Z,22.58
2017-03-28T05:31:59.529Z,22.6
2017-03-28T05:32:59.578Z,22.65
2017-03-28T05:33:59.586Z,22.64
2017-03-28T05:34:59.863Z,22.67
2017-03-28T05:35:59.323Z,22.75
2017-03-28T05:36:59.665Z,22.7
2017-03-28T05:37:59.701Z,22.73
2017-03-28T05:38:59.405Z,22.65
2017-03-28T05:39:59.998Z,22.79
2017-03-28T05:40:59.467Z,22.68
2017-03-28T05:41:59.173Z,22.7
2017-03-28T05:42:59.837Z,22.72
2017-03-28T05:43:59.554Z,22.72
2017-03-28T05:44:59.827Z,22.8
2017-03-28T05:45:59.596Z,22.72
2017-03-28T05:46:59.945Z,22.75
2017-03-28T05:47:59.653Z,22.75
2017-03-28T05:48:59.997Z,22.68
2017-03-28T05:50:00.270Z,22.77
2017-03-28T05:51:00.046Z,22.77
2017-03-28T05:52:00.079Z,22.76
2017-03-28T05:53:00.112Z,22.83
2017-03-28T05:53:59.821Z,22.79
2017-03-28T05:55:00.405Z,22.82
2017-03-28T05:55:59.874Z,22.79
2017-03-28T05:57:00.207Z,22.8
2017-03-28T05:57:59.933Z,22.86
2017-03-28T05:59:00.273Z,22.86
2017-03-28T05:59:59.977Z,22.9
2017-03-28T06:01:00.321Z,22.86
2017-03-28T06:02:00.354Z,22.85
2017-03-28T06:03:00.377Z,22.88
2017-03-28T06:04:00.401Z,22.88
2017-03-28T06:05:00.118Z,22.83
2017-03-28T06:06:00.148Z,22.88
2017-03-28T06:07:00.498Z,22.86
2017-03-28T06:08:00.528Z,22.88
2017-03-28T06:08:59.925Z,22.86
2017-03-28T06:10:00.571Z,22.9
2017-03-28T06:11:00.593Z,22.91
2017-03-28T06:12:00.623Z,23
2017-03-28T06:13:00.391Z,22.97
2017-03-28T06:14:00.692Z,22.91
2017-03-28T06:15:00.709Z,22.95
2017-03-28T06:16:00.446Z,23.04
2017-03-28T06:17:00.442Z,22.94
2017-03-28T06:18:00.795Z,22.97
2017-03-28T06:19:00.199Z,23.01
2017-03-28T06:20:00.534Z,23.09
2017-03-28T06:21:00.870Z,23.02
2017-03-28T06:22:00.586Z,23.05
2017-03-28T06:23:00.927Z,23.07
2017-03-28T06:24:00.952Z,23.05
2017-03-28T06:25:00.980Z,23.05
2017-03-28T06:26:01.000Z,23.13
2017-03-28T06:27:00.715Z,23.07
2017-03-28T06:28:00.756Z,23.07
2017-03-28T06:29:00.472Z,23.07
2017-03-28T06:30:01.121Z,23.12
2017-03-28T06:31:01.141Z,23.1
2017-03-28T06:32:00.856Z,23.07
2017-03-28T06:33:01.206Z,23.12
2017-03-28T06:34:01.228Z,23.09
2017-03-28T06:35:00.944Z,23.09
2017-03-28T06:36:00.969Z,23.05
2017-03-28T06:37:01.002Z,23.17
2017-03-28T06:38:01.023Z,23.16
2017-03-28T06:39:01.067Z,23.12
2017-03-28T06:40:01.404Z,23.19
2017-03-28T06:41:01.421Z,23.15
2017-03-28T06:42:01.437Z,23.07
2017-03-28T06:43:01.478Z,23.22
2017-03-28T06:44:01.511Z,23.12
2017-03-28T06:45:00.904Z,23.17
2017-03-28T06:46:01.808Z,23.23
2017-03-28T06:47:01.577Z,23.17
2017-03-28T06:48:01.610Z,23.13
2017-03-28T06:49:01.642Z,23.27
2017-03-28T06:50:01.668Z,23.16
2017-03-28T06:51:01.949Z,23.15
2017-03-28T06:52:01.717Z,23.12
2017-03-28T06:53:01.751Z,23.22
2017-03-28T06:54:01.784Z,23.1
2017-03-28T06:55:01.804Z,23.22
2017-03-28T06:56:02.080Z,23.15
2017-03-28T06:57:01.233Z,23.16
2017-03-28T06:58:01.895Z,23.22
2017-03-28T06:59:01.917Z,23.12
2017-03-28T07:00:01.943Z,23.13
2017-03-28T07:01:02.219Z,23.19
2017-03-28T07:02:01.681Z,23.15
2017-03-28T07:03:01.722Z,23.15
2017-03-28T07:04:02.055Z,23.17
2017-03-28T07:05:02.082Z,23.15
2017-03-28T07:06:02.056Z,23.15
2017-03-28T07:07:02.143Z,23.15
2017-03-28T07:08:02.169Z,23.22
2017-03-28T07:09:02.186Z,23.13
2017-03-28T07:10:02.223Z,23.2
2017-03-28T07:11:02.495Z,23.17
2017-03-28T07:12:02.295Z,23.13
2017-03-28T07:13:01.994Z,23.17
2017-03-28T07:14:02.018Z,23.2
2017-03-28T07:15:02.042Z,23.22
2017-03-28T07:16:02.323Z,23.1
2017-03-28T07:17:02.097Z,23.13
2017-03-28T07:18:02.441Z,23.17
2017-03-28T07:19:02.501Z,23.13
2017-03-28T07:20:02.494Z,23.13
2017-03-28T07:21:02.463Z,23.23
2017-03-28T07:22:02.235Z,23.12
2017-03-28T07:23:02.288Z,23.17
2017-03-28T07:24:02.606Z,23.15
2017-03-28T07:25:02.648Z,23.15
2017-03-28T07:26:02.909Z,23.16
2017-03-28T07:27:02.375Z,23.1
2017-03-28T07:28:02.708Z,23.12
2017-03-28T07:29:02.750Z,23.15
2017-03-28T07:30:02.771Z,23.22
2017-03-28T07:31:03.045Z,23.38
2017-03-28T07:32:02.204Z,23.87
2017-03-28T07:33:02.852Z,24.46
2017-03-28T07:34:02.881Z,25.06
2017-03-28T07:35:02.601Z,25.6
2017-03-28T07:36:03.187Z,26.1
2017-03-28T07:37:02.647Z,26.66
2017-03-28T07:38:03.001Z,27.04
2017-03-28T07:39:03.029Z,27.36
2017-03-28T07:40:02.739Z,27.78
2017-03-28T07:41:03.330Z,28.12
2017-03-28T07:42:02.808Z,28.39
2017-03-28T07:43:03.142Z,28.61
2017-03-28T07:44:03.157Z,28.86
2017-03-28T07:45:02.885Z,29.09
2017-03-28T07:46:03.160Z,29.23
2017-03-28T07:47:03.275Z,29.42
2017-03-28T07:48:03.280Z,29.63
2017-03-28T07:49:03.013Z,29.79
2017-03-28T07:50:03.026Z,29.9
2017-03-28T07:51:03.617Z,29.89
2017-03-28T07:52:03.086Z,29.82
2017-03-28T07:53:03.419Z,29.51
2017-03-28T07:54:03.456Z,29.14
2017-03-28T07:55:03.496Z,28.64
2017-03-28T07:56:03.193Z,28.34
2017-03-28T07:57:03.541Z,27.99
2017-03-28T07:58:03.569Z,27.82
2017-03-28T07:59:03.293Z,27.49
2017-03-28T08:00:03.320Z,27.24
2017-03-28T08:01:03.058Z,27.12
2017-03-28T08:02:03.684Z,26.88
2017-03-28T08:03:03.716Z,26.75
2017-03-28T08:04:03.748Z,26.58
2017-03-28T08:05:03.773Z,26.5
2017-03-28T08:06:03.805Z,26.26
2017-03-28T08:07:03.834Z,26.2
2017-03-28T08:08:03.860Z,26.1
2017-03-28T08:09:03.573Z,26.07
2017-03-28T08:10:03.913Z,25.97
2017-03-28T08:11:03.945Z,25.83
2017-03-28T08:12:03.978Z,25.8
2017-03-28T08:13:04.016Z,25.77
2017-03-28T08:14:04.036Z,25.7
2017-03-28T08:15:04.076Z,25.55
2017-03-28T08:16:03.473Z,25.57
2017-03-28T08:17:04.373Z,25.52
2017-03-28T08:18:04.163Z,25.38
2017-03-28T08:19:04.183Z,25.39
2017-03-28T08:20:03.901Z,25.38
2017-03-28T08:21:04.237Z,25.36
2017-03-28T08:22:04.202Z,25.28
2017-03-28T08:23:03.984Z,25.21
2017-03-28T08:24:04.319Z,25.15
2017-03-28T08:25:04.359Z,25.15
2017-03-28T08:26:04.377Z,25.14
2017-03-28T08:27:04.666Z,25.06
2017-03-28T08:28:04.439Z,25.14
2017-03-28T08:29:04.152Z,25.08
2017-03-28T08:30:04.500Z,24.98
2017-03-28T08:31:04.524Z,24.96
2017-03-28T08:32:04.521Z,24.98
2017-03-28T08:33:04.271Z,24.93
2017-03-28T08:34:04.612Z,24.85
2017-03-28T08:35:04.322Z,24.84
2017-03-28T08:36:04.664Z,24.84
2017-03-28T08:37:04.945Z,24.85
2017-03-28T08:38:04.411Z,24.73
2017-03-28T08:39:04.752Z,24.73
2017-03-28T08:40:04.468Z,24.65
2017-03-28T08:41:04.809Z,24.62
2017-03-28T08:42:04.780Z,24.71
2017-03-28T08:43:04.551Z,24.71
2017-03-28T08:44:04.902Z,24.67
2017-03-28T08:45:04.938Z,24.61
2017-03-28T08:46:04.348Z,24.6
2017-03-28T08:47:05.246Z,24.58
2017-03-28T08:48:05.007Z,24.6
2017-03-28T08:49:05.039Z,24.52
2017-03-28T08:50:05.068Z,24.55
2017-03-28T08:51:05.097Z,24.64
2017-03-28T08:52:05.377Z,24.6
2017-03-28T08:53:05.150Z,24.57
2017-03-28T08:54:05.177Z,24.47
2017-03-28T08:55:04.891Z,24.5
2017-03-28T08:56:04.920Z,24.6
2017-03-28T08:57:05.520Z,24.52
2017-03-28T08:58:05.294Z,24.57
2017-03-28T08:59:05.323Z,24.55
2017-03-28T09:00:05.345Z,24.49
2017-03-28T09:01:05.380Z,24.61
2017-03-28T09:02:05.099Z,24.61
2017-03-28T09:03:05.434Z,24.84
2017-03-28T09:04:05.461Z,24.95
2017-03-28T09:05:05.494Z,25.13
2017-03-28T09:06:05.519Z,25.38
2017-03-28T09:07:05.232Z,25.64
2017-03-28T09:08:05.257Z,25.9
2017-03-28T09:09:05.606Z,26.1
2017-03-28T09:10:05.634Z,26.28
2017-03-28T09:11:05.350Z,26.44
2017-03-28T09:12:05.049Z,26.6
2017-03-28T09:13:05.403Z,26.72
2017-03-28T09:14:05.745Z,26.87
2017-03-28T09:15:05.772Z,26.95
2017-03-28T09:16:05.793Z,27.1
2017-03-28T09:17:05.828Z,27.14
2017-03-28T09:18:05.861Z,27.13
2017-03-28T09:19:05.885Z,27.06
2017-03-28T09:20:05.601Z,27.06
2017-03-28T09:21:05.943Z,26.92
2017-03-28T09:22:05.982Z,26.8
2017-03-28T09:23:06.013Z,26.69
2017-03-28T09:24:05.717Z,26.5
2017-03-28T09:25:05.442Z,26.36
2017-03-28T09:26:06.090Z,26.23
2017-03-28T09:27:05.807Z,26.1
2017-03-28T09:28:06.405Z,26.07
2017-03-28T09:29:06.185Z,25.98
2017-03-28T09:30:05.900Z,25.88
2017-03-28T09:31:06.242Z,25.87
2017-03-28T09:32:05.643Z,25.77
2017-03-28T09:33:06.232Z,25.79
2017-03-28T09:34:06.326Z,25.69
2017-03-28T09:35:06.349Z,25.72
2017-03-28T09:36:05.748Z,25.54
2017-03-28T09:37:06.412Z,25.55
2017-03-28T09:38:06.692Z,25.61
2017-03-28T09:39:06.469Z,25.5
2017-03-28T09:40:06.496Z,25.47
2017-03-28T09:41:06.549Z,25.52
2017-03-28T09:42:06.554Z,25.46
2017-03-28T09:43:06.831Z,25.5
2017-03-28T09:44:06.300Z,25.47
2017-03-28T09:45:06.637Z,25.45
2017-03-28T09:46:06.670Z,25.4
2017-03-28T09:47:06.386Z,25.39
2017-03-28T09:48:06.971Z,25.32
2017-03-28T09:49:06.442Z,25.38
2017-03-28T09:50:06.472Z,25.45
2017-03-28T09:51:06.813Z,25.32
2017-03-28T09:52:06.845Z,25.38
2017-03-28T09:53:06.818Z,25.32
2017-03-28T09:54:06.277Z,25.35
2017-03-28T09:55:06.612Z,25.32
2017-03-28T09:56:06.649Z,25.36
2017-03-28T09:57:06.669Z,25.25
2017-03-28T09:58:07.253Z,25.27
2017-03-28T09:59:06.415Z,25.36
2017-03-28T10:00:07.075Z,25.27
2017-03-28T10:01:06.784Z,25.33
2017-03-28T10:02:06.815Z,25.28
2017-03-28T10:03:07.417Z,25.39
2017-03-28T10:04:07.188Z,25.23
2017-03-28T10:05:06.900Z,25.25
2017-03-28T10:06:06.644Z,25.3
2017-03-28T10:07:06.981Z,25.25
2017-03-28T10:08:07.682Z,25.32
2017-03-28T10:09:07.323Z,25.23
2017-03-28T10:10:07.048Z,25.27
2017-03-28T10:11:07.384Z,25.33
2017-03-28T10:12:07.417Z,25.35
2017-03-28T10:13:07.446Z,25.35
2017-03-28T10:14:07.462Z,25.39
2017-03-28T10:15:07.499Z,25.35
2017-03-28T10:16:07.538Z,25.35
2017-03-28T10:17:07.556Z,25.39
2017-03-28T10:18:07.590Z,25.45
2017-03-28T10:19:07.615Z,25.4
2017-03-28T10:20:07.650Z,25.43
2017-03-28T10:21:07.360Z,25.4
2017-03-28T10:22:07.703Z,25.35
2017-03-28T10:23:07.738Z,25.38
2017-03-28T10:24:07.452Z,25.42
2017-03-28T10:25:07.794Z,25.42
2017-03-28T10:26:07.506Z,25.43
2017-03-28T10:27:07.857Z,25.46
2017-03-28T10:28:07.562Z,25.47
2017-03-28T10:29:07.905Z,25.47
2017-03-28T10:30:07.619Z,25.51
2017-03-28T10:31:07.692Z,25.5
2017-03-28T10:32:07.673Z,25.42
2017-03-28T10:33:07.712Z,25.52
2017-03-28T10:34:08.053Z,25.45
2017-03-28T10:35:07.768Z,25.46
2017-03-28T10:36:08.104Z,25.45
2017-03-28T10:37:08.140Z,25.43
2017-03-28T10:38:08.165Z,25.46
2017-03-28T10:39:08.193Z,25.46
2017-03-28T10:40:08.214Z,25.43
2017-03-28T10:41:08.264Z,25.5
2017-03-28T10:42:08.281Z,25.43
2017-03-28T10:43:08.316Z,25.39
2017-03-28T10:44:07.717Z,25.39
2017-03-28T10:45:07.744Z,25.36
2017-03-28T10:46:08.395Z,25.43
2017-03-28T10:47:08.115Z,25.36
2017-03-28T10:48:07.825Z,25.35
2017-03-28T10:49:08.173Z,25.4
2017-03-28T10:50:08.202Z,25.39
2017-03-28T10:51:08.246Z,25.4
2017-03-28T10:52:08.575Z,25.38
2017-03-28T10:53:08.284Z,25.32
2017-03-28T10:54:08.639Z,25.36
2017-03-28T10:55:08.658Z,25.39
2017-03-28T10:56:08.058Z,25.38
2017-03-28T10:57:08.720Z,25.38
2017-03-28T10:58:08.138Z,25.39
2017-03-28T10:59:08.153Z,25.39
2017-03-28T11:00:08.811Z,25.38
2017-03-28T11:01:08.834Z,25.35
2017-03-28T11:02:08.854Z,25.38
2017-03-28T11:03:08.583Z,25.38
2017-03-28T11:04:08.618Z,25.36
2017-03-28T11:05:08.642Z,25.4
2017-03-28T11:06:08.982Z,25.35
2017-03-28T11:07:09.015Z,25.36
2017-03-28T11:08:09.039Z,25.3
2017-03-28T11:09:09.008Z,25.36
2017-03-28T11:10:09.093Z,25.36
2017-03-28T11:11:08.818Z,25.35
2017-03-28T11:12:09.159Z,25.38
2017-03-28T11:13:08.867Z,25.36
2017-03-28T11:14:09.160Z,25.36
2017-03-28T11:15:08.930Z,25.35
2017-03-28T11:16:08.965Z,25.4
2017-03-28T11:17:09.304Z,25.35
2017-03-28T11:18:09.350Z,25.32
2017-03-28T11:19:09.609Z,25.38
2017-03-28T11:20:09.396Z,25.35
2017-03-28T11:21:09.425Z,25.42
2017-03-28T11:22:09.143Z,25.42
2017-03-28T11:23:09.176Z,25.43
2017-03-28T11:24:09.760Z,25.4
2017-03-28T11:25:09.543Z,25.46
2017-03-28T11:26:09.577Z,25.39
2017-03-28T11:27:09.606Z,25.4
2017-03-28T11:28:09.002Z,25.5
2017-03-28T11:29:09.915Z,25.5
2017-03-28T11:30:09.685Z,25.5
2017-03-28T11:31:09.413Z,25.58
2017-03-28T11:32:09.743Z,25.55
2017-03-28T11:33:09.770Z,25.51
2017-03-28T11:34:09.747Z,25.57
2017-03-28T11:35:09.524Z,25.58
2017-03-28T11:36:09.869Z,25.6
2017-03-28T11:37:09.586Z,25.61
2017-03-28T11:38:09.923Z,25.7
2017-03-28T11:39:09.589Z,25.69
2017-03-28T11:40:09.990Z,25.8
2017-03-28T11:41:10.053Z,25.8
2017-03-28T11:42:10.041Z,25.8
2017-03-28T11:43:10.084Z,25.91
2017-03-28T11:44:10.360Z,25.87
2017-03-28T11:45:10.136Z,25.9
2017-03-28T11:46:10.164Z,26.1
2017-03-28T11:47:09.876Z,26.09
2017-03-28T11:48:10.223Z,26.06
2017-03-28T11:49:10.188Z,26.12
2017-03-28T11:50:09.971Z,26.18
2017-03-28T11:51:10.304Z,26.32
2017-03-28T11:52:10.033Z,26.4
2017-03-28T11:53:10.369Z,26.44
2017-03-28T11:54:10.669Z,26.65
2017-03-28T11:55:10.428Z,26.8
2017-03-28T11:56:10.145Z,26.94
2017-03-28T11:57:10.493Z,27.04
2017-03-28T11:58:10.210Z,27.21
2017-03-28T11:59:10.229Z,27.24
2017-03-28T12:00:10.263Z,27.39
2017-03-28T12:01:10.609Z,27.59
2017-03-28T12:02:10.632Z,27.74
2017-03-28T12:03:10.677Z,27.9
2017-03-28T12:04:10.394Z,27.96
2017-03-28T12:05:10.724Z,28.14
2017-03-28T12:06:10.754Z,28.33
2017-03-28T12:07:10.793Z,28.41
2017-03-28T12:08:10.825Z,28.4
2017-03-28T12:09:10.923Z,28.55
2017-03-28T12:10:10.889Z,28.66
2017-03-28T12:11:10.914Z,28.9
2017-03-28T12:12:10.947Z,29.02
2017-03-28T12:13:10.977Z,28.96
2017-03-28T12:14:11.014Z,29.24
2017-03-28T12:15:11.043Z,29.19
2017-03-28T12:16:11.258Z,29.41
2017-03-28T12:17:10.483Z,29.42
2017-03-28T12:18:11.145Z,29.61
2017-03-28T12:19:10.857Z,29.61
2017-03-28T12:20:11.208Z,29.79
2017-03-28T12:21:11.235Z,29.86
2017-03-28T12:22:10.964Z,29.94
2017-03-28T12:23:11.309Z,30
2017-03-28T12:24:11.329Z,30.1
2017-03-28T12:25:11.366Z,30.19
2017-03-28T12:26:11.391Z,30.22
2017-03-28T12:27:11.436Z,30.29
2017-03-28T12:28:11.461Z,30.43
2017-03-28T12:29:11.482Z,30.54
2017-03-28T12:30:11.522Z,30.61
2017-03-28T12:31:11.560Z,30.69
2017-03-28T12:32:11.280Z,30.61
2017-03-28T12:33:11.317Z,30.76
2017-03-28T12:34:11.348Z,30.92
2017-03-28T12:35:11.941Z,30.89
2017-03-28T12:36:11.100Z,31.02
2017-03-28T12:37:11.755Z,31.02
2017-03-28T12:38:11.792Z,31.09
2017-03-28T12:39:11.821Z,31.13
2017-03-28T12:40:11.787Z,31.19
2017-03-28T12:41:11.878Z,31.29
2017-03-28T12:42:11.624Z,31.28
2017-03-28T12:43:11.648Z,31.34
2017-03-28T12:44:11.985Z,31.43
2017-03-28T12:45:12.270Z,31.48
2017-03-28T12:46:12.051Z,31.53
2017-03-28T12:47:11.767Z,31.57
2017-03-28T12:48:11.812Z,31.51
2017-03-28T12:49:11.841Z,31.63
2017-03-28T12:50:12.446Z,31.68
2017-03-28T12:51:12.222Z,31.75
2017-03-28T12:52:12.255Z,31.75
2017-03-28T12:53:12.284Z,31.78
2017-03-28T12:54:12.348Z,31.78
2017-03-28T12:55:12.597Z,31.8
2017-03-28T12:56:12.393Z,31.92
2017-03-28T12:57:12.418Z,32